Pagrindinis puslapis
METAR-TAF:

METAR-TAF

Oro uostai :

Tin City, Aliaska, Jungtinės Amerikos Valstijos

platuma: 65-34N, ilguma: 167-55W, Aukštis: 83 m

Dabartinis oras

Ataskaita buvo paskelbta 18 minutes, ne 01:55 UTC
Vėjas 27 kt iš Šiaurės su gūsio iki 33 kt
Temperatūra 6°C
Drėgmė 93%
Slėgis 993 hPa
Matomumas: 6.4 km
Su prošvaistėmis ne aukštis 900 ft
lietus

METAR: PATC 190155Z AUTO 36027G33KT 4SM -RA BKN009 06/05 A2933 RMK AO2 PK WND 35033/0116 RAB2355 SLP935 P0009 T00580049

Laikas: 18:13 (02:13 UTC)


TAF: trūkstamas

Orai ataskaitas ir orų prognozės (METAR, TAF).

turimą stotys yra geltonos ir raudonos taškus žemėlapyje.

Perkelti pele per norėdami pamatyti stoties vardą.

Tada spustelėkite, norėdami matyti oro stebėjimo ir prognozės.

Norėdami pakeisti žemėlapį: spustelėkite ant žalios mygtukų su juodo kryžiaus žemyn,; žalią mygtuką su brūkšneliu, jei norite nutolinti; arba žalių rodyklių gretimoms žemėlapius.


METAR-TAF: